ěÝzenÝ letovÚho provozu ╚eskÚ republiky
Letiste: LKPR Aktualizace: 25.05.2024 08:52:39  UTC
 SPECI LKPR 25.05. 08:51 ...
SPECI LKPR 250851Z 33004KT 270V360 1200 R24/1100U R30/P2000N BR SCT002 OVC003 14/14 Q1018=
 TAF LKPR 25.05. 08:00 ...
TAF LKPR 250800Z 2509/2615 02004KT 9999 BKN025      TEMPO 2509/2518 6000 SHRA SCT017CB      PROB30 TEMPO 2510/2518 3000 TSRA BKN014CB      BECMG 2520/2522 18004KT 3000 BR SCT005      BECMG 2605/2607 CAVOK=